Home > Products > Valid Products > MTR

000
SAUS46 KPQR 010053
MTRREO
METAR KREO 010052Z AUTO 05007KT 14/M01 A2970 RMK AO1 SLP040
T01441011





000
SAUS46 KPQR 312353
MTRREO
METAR KREO 312352Z AUTO 03007KT 17/M01 A2971 RMK AO1 SLP049
T01671011 10200 20156 58018





000
SAUS46 KPQR 312254
MTRREO
METAR KREO 312252Z AUTO 01007KT 17/M01 A2974 RMK AO1 SLP054
T01721011





000
SAUS46 KPQR 312254
MTRREO
METAR KREO 312252Z AUTO 01007KT 17/M01 A2974 RMK AO1 SLP054
T01721011





000
SAUS46 KPQR 312154
MTRREO
METAR KREO 312152Z AUTO 36008KT 18/M01 A2975 RMK AO1 SLP057
T01781006





000
SAUS46 KPQR 312053
MTRREO
METAR KREO 312052Z AUTO 36006KT 17/M01 A2977 RMK AO1 SLP065
T01721011 58017





000
SAUS46 KPQR 311953
MTRREO
METAR KREO 311952Z AUTO 02009KT 18/00 A2979 RMK AO1 SLP073 T01830000





000
SAUS46 KPQR 311854 COR
MTRREO
METAR KREO 311852Z AUTO 13004KT 18/M02 A2982 RMK AO1 SLP084
T01781022





000
SAUS46 KPQR 311753
MTRREO
METAR KREO 311752Z AUTO 13007KT 16/M02 A2983 RMK AO1 SLP087
T01561022 10156 20056 58002





000
SAUS46 KPQR 311653
MTRREO
METAR KREO 311652Z AUTO 00000KT 09/00 A2984 RMK AO1 SLP100 T00940000





000
SAUS46 KPQR 311653
MTRREO
METAR KREO 311652Z AUTO 00000KT 09/00 A2984 RMK AO1 SLP100 T00940000





000
SAUS46 KPQR 311553
MTRREO
METAR KREO 311552Z AUTO 29004KT 08/M01 A2984 RMK AO1 SLP100
T00781006





000
SAUS46 KPQR 311453
MTRREO
METAR KREO 311452Z AUTO 26005KT 07/M01 A2984 RMK AO1 SLP098
T00721011





000
SAUS46 KPQR 311353
MTRREO
METAR KREO 311352Z AUTO 16005KT 10/M02 A2983 RMK AO1 SLP086
T01001022





000
SAUS46 KPQR 311254
MTRREO
METAR KREO 311252Z AUTO 14008KT 09/M02 A2983 RMK AO1 SLP085
T00941022





000
SAUS46 KPQR 311153
MTRREO
METAR KREO 311152Z AUTO 15007KT 05/M01 A2984 RMK AO1 SLP090
T00501011 10094 20044 56007





000
SAUS46 KPQR 311053
MTRREO
METAR KREO 311052Z AUTO 23003KT 07/M01 A2984 RMK AO1 SLP086
T00721006





000
SAUS46 KPQR 311053
MTRREO
METAR KREO 311052Z AUTO 23003KT 07/M01 A2984 RMK AO1 SLP086
T00721006





000
SAUS46 KPQR 310953
MTRREO
METAR KREO 310952Z AUTO 14006KT 08/M01 A2984 RMK AO1 SLP087
T00831006





000
SAUS46 KPQR 310953
MTRREO
METAR KREO 310952Z AUTO 14006KT 08/M01 A2984 RMK AO1 SLP087
T00831006





000
SAUS46 KPQR 310853
MTRREO
METAR KREO 310852Z AUTO 14006KT 08/M01 A2986 RMK AO1 SLP094
T00831006 56012





000
SAUS46 KPQR 310753
MTRREO
METAR KREO 310752Z AUTO 15006KT 06/M01 A2987 RMK AO1 SLP102
T00611011 401890006





000
SAUS46 KPQR 310653
MTRREO
METAR KREO 310652Z AUTO 24004KT 05/M02 A2988 RMK AO1 SLP111
T00501017





000
SAUS46 KPQR 310553
MTRREO
METAR KREO 310552Z AUTO 12004KT 09/M01 A2990 RMK AO1 SLP116
T00891006 10178 20072 56013





000
SAUS46 KPQR 310453
MTRREO
METAR KREO 310452Z AUTO 15004KT 08/M01 A2991 RMK AO1 SLP123
T00781011





000
SAUS46 KPQR 310453
MTRREO
METAR KREO 310452Z AUTO 15004KT 08/M01 A2991 RMK AO1 SLP123
T00781011





000
SAUS46 KPQR 310353
MTRREO
METAR KREO 310352Z AUTO 18005KT 09/M01 A2993 RMK AO1 SLP129
T00941006





000
SAUS46 KPQR 310353
MTRREO
METAR KREO 310352Z AUTO 18005KT 09/M01 A2993 RMK AO1 SLP129
T00941006





000
SAUS46 KPQR 310253
MTRREO
METAR KREO 310252Z AUTO 21004KT 11/M01 A2994 RMK AO1 SLP141
T01061006 56010





000
SAUS46 KPQR 310153
MTRREO
METAR KREO 310152Z AUTO VRB03KT 14/01 A2994 RMK AO1 SLP138 T01440006





000
SAUS46 KPQR 310053
MTRREO
METAR KREO 310052Z AUTO 03005KT 15/01 A2995 RMK AO1 SLP138 T01500006





000
SAUS46 KPQR 302353
MTRREO
METAR KREO 302352Z AUTO 01004KT 18/01 A2997 RMK AO1 SLP142 T01780006
10189 20111 56017





000
SAUS46 KPQR 302253
MTRREO
METAR KREO 302252Z AUTO 00000KT 19/00 A2999 RMK AO1 SLP143 T01890000





000
SAUS46 KPQR 302153
MTRREO
METAR KREO 302152Z AUTO 00000KT 18/01 A3000 RMK AO1 SLP150 T01830006





000
SAUS46 KPQR 302153
MTRREO
METAR KREO 302152Z AUTO 00000KT 18/01 A3000 RMK AO1 SLP150 T01830006





000
SAUS46 KPQR 302053
MTRREO
METAR KREO 302052Z AUTO 35003KT 17/01 A3003 RMK AO1 SLP162 T01670011
58026





000
SAUS46 KPQR 301953
MTRREO
METAR KREO 301952Z AUTO 30004KT 16/01 A3006 RMK AO1 SLP173 T01560011





000
SAUS46 KPQR 301853
MTRREO
METAR KREO 301852Z AUTO 00000KT 14/02 A3009 RMK AO1 SLP184 T01390017





000
SAUS46 KPQR 301753
MTRREO
METAR KREO 301752Z AUTO 29003KT 11/02 A3012 RMK AO1 SLP196 T01060017
10111 20006 58004





000
SAUS46 KPQR 301653
MTRREO
METAR KREO 301652Z AUTO 36003KT 09/02 A3013 RMK AO1 SLP201 T00890017





000
SAUS46 KPQR 301653
MTRREO
METAR KREO 301652Z AUTO 36003KT 09/02 A3013 RMK AO1 SLP201 T00890017





000
SAUS46 KPQR 301553
MTRREO
METAR KREO 301552Z AUTO 00000KT 08/02 A3014 RMK AO1 SLP202 T00830022





000
SAUS46 KPQR 301453
MTRREO
METAR KREO 301452Z AUTO 14005KT 02/M02 A3013 RMK AO1 SLP207
T00171017 53001





000
SAUS46 KPQR 301353
MTRREO
METAR KREO 301352Z AUTO 21003KT 01/M02 A3013 RMK AO1 SLP204
T00061022





000
SAUS46 KPQR 301253
MTRREO
METAR KREO 301252Z AUTO 18005KT 02/M02 A3012 RMK AO1 SLP200
T00171017





000
SAUS46 KPQR 301153
MTRREO
METAR KREO 301152Z AUTO 00000KT 02/M02 A3013 RMK AO1 SLP198
T00171017 10067 20017 58011





000
SAUS46 KPQR 301053
MTRREO
METAR KREO 301052Z AUTO 14004KT 03/M01 A3014 RMK AO1 SLP196
T00331011





000
SAUS46 KPQR 301053
MTRREO
METAR KREO 301052Z AUTO 14004KT 03/M01 A3014 RMK AO1 SLP196
T00331011





000
SAUS46 KPQR 300953
MTRREO
METAR KREO 300952Z AUTO 18003KT 03/M01 A3016 RMK AO1 SLP204
T00281011





000
SAUS46 KPQR 300853
MTRREO
METAR KREO 300852Z AUTO 17005KT 03/M01 A3016 RMK AO1 SLP205
T00331006 56004





000
SAUS46 KPQR 300753
MTRREO
METAR KREO 300752Z AUTO 00000KT 04/00 A3017 RMK AO1 SLP208 T00390000
402060039





000
SAUS46 KPQR 300653
MTRREO
METAR KREO 300652Z AUTO 08006KT 06/02 A3016 RMK AO1 SLP203 T00610017





000
SAUS46 KPQR 300553
MTRREO
METAR KREO 300552Z AUTO 05006KT 07/02 A3018 RMK AO1 SLP210 T00670017
10172 20067 53002





000
SAUS46 KPQR 300453
MTRREO
METAR KREO 300452Z AUTO 04008KT 07/01 A3017 RMK AO1 SLP211 T00720011





000
SAUS46 KPQR 300453
MTRREO
METAR KREO 300452Z AUTO 04008KT 07/01 A3017 RMK AO1 SLP211 T00720011





000
SAUS46 KPQR 300353
MTRREO
METAR KREO 300352Z AUTO 36004KT 09/01 A3016 RMK AO1 SLP209 T00890011





000
SAUS46 KPQR 300253
MTRREO
METAR KREO 300252Z AUTO 24006KT 11/01 A3017 RMK AO1 SLP211 T01110011
53001





000
SAUS46 KPQR 300153
MTRREO
METAR KREO 300152Z AUTO 09009KT 13/02 A3016 RMK AO1 SLP208 T01330022





000
SAUS46 KPQR 300054
MTRREO
METAR KREO 300052Z AUTO 05009KT 15/02 A3016 RMK AO1 SLP202 T01500022





000
SAUS46 KPQR 292354
MTRREO
METAR KREO 292352Z AUTO 03008KT 17/02 A3017 RMK AO1 SLP201 T01720017
10206 20161 56005





000
SAUS46 KPQR 292254
MTRREO
METAR KREO 292252Z AUTO 36009KT 19/02 A3017 RMK AO1 SLP200 T01890017





000
SAUS46 KPQR 292254
MTRREO
METAR KREO 292252Z AUTO 36009KT 19/02 A3017 RMK AO1 SLP200 T01890017





000
SAUS46 KPQR 292153
MTRREO
METAR KREO 292152Z AUTO 31004KT 19/01 A3017 RMK AO1 SLP199 T01940006





000
SAUS46 KPQR 292053
MTRREO
METAR KREO 292052Z AUTO 28010KT 20/M01 A3018 RMK AO1 SLP201
T02001006 58009





000
SAUS46 KPQR 291953
MTRREO
METAR KREO 291952Z AUTO VRB03KT 17/02 A3021 RMK AO1 SLP216 T01720017





000
SAUS46 KPQR 291853
MTRREO
METAR KREO 291852Z AUTO 33005KT 18/02 A3021 RMK AO1 SLP217 T01780017





000
SAUS46 KPQR 291753
MTRREO
METAR KREO 291752Z AUTO 00000KT 16/01 A3021 RMK AO1 SLP222 T01560006
10156 20050 51008





000
SAUS46 KPQR 291653
MTRREO
METAR KREO 291652Z AUTO 00000KT 13/01 A3021 RMK AO1 SLP222 T01280006





000
SAUS46 KPQR 291553
MTRREO
METAR KREO 291552Z AUTO 00000KT 10/01 A3021 RMK AO1 SLP225 T01000006





000
SAUS46 KPQR 291453
MTRREO
METAR KREO 291452Z AUTO 12007KT 09/M01 A3019 RMK AO1 SLP215
T00891006 51012





000
SAUS46 KPQR 291353
MTRREO
METAR KREO 291352Z AUTO 00000KT 07/M01 A3018 RMK AO1 SLP216
T00671011





000
SAUS46 KPQR 291258
MTRREO
METAR KREO 291252Z AUTO 33005KT 08/M01 A3017 RMK AO1 SLP206
T00831011





000
SAUS46 KPQR 291153
MTRREO
METAR KREO 291152Z AUTO 11006KT 09/M02 A3014 RMK AO1 SLP193
T00891017 10106 20067 58003





000
SAUS46 KPQR 291053
MTRREO
METAR KREO 291052Z AUTO 19003KT 09/00 A3015 RMK AO1 SLP193 T00940000





000
SAUS46 KPQR 290953
MTRREO
METAR KREO 290952Z AUTO 00000KT 09/M01 A3017 RMK AO1 SLP201
T00891011





000
SAUS46 KPQR 290853
MTRREO
METAR KREO 290852Z AUTO 18004KT 11/00 A3016 RMK AO1 SLP197 T01060000
53005





000
SAUS46 KPQR 290753
MTRREO
METAR KREO 290752Z AUTO 15008KT 08/M01 A3014 RMK AO1 SLP198
T00831006 401891050





000
SAUS46 KPQR 290653
MTRREO
METAR KREO 290652Z AUTO 17009KT 08/M02 A3014 RMK AO1 SLP201
T00781017





000
SAUS46 KPQR 290553
MTRREO
METAR KREO 290552Z AUTO 19009KT 07/M03 A3014 RMK AO1 SLP204
T00721028 10172 20072 53008





000
SAUS46 KPQR 290453
MTRREO
METAR KREO 290452Z AUTO 25003KT 08/M03 A3012 RMK AO1 SLP203
T00831028





000
SAUS46 KPQR 290453
MTRREO
METAR KREO 290452Z AUTO 25003KT 08/M03 A3012 RMK AO1 SLP203
T00831028





000
SAUS46 KPQR 290353
MTRREO
METAR KREO 290352Z AUTO 13009KT 11/M03 A3010 RMK AO1 SLP197
T01061028





000
SAUS46 KPQR 290253
MTRREO
METAR KREO 290252Z AUTO 13012KT 12/M03 A3011 RMK AO1 SLP207
T01171033 53006





000
SAUS46 KPQR 290153
MTRREO
METAR KREO 290152Z AUTO 13014KT 12/M04 A3010 RMK AO1 SLP204
T01221039





    US Dept of Commerce
    National Oceanic and Atmospheric Administration
    National Weather Service
    1325 East West Highway
    Silver Spring, MD 20910
    Page Author: NWS Internet Services Team
Disclaimer
Information Quality
Credits
Glossary
Privacy Policy
Freedom of Information Act (FOIA)
About Us
Career Opportunities